This is the latest recevied weather packets stored in our database for station/object OE5XFR. If no packets are shown the sender has not sent any weather packets the latest 10 day(s).
| Time | Temp. | Humidity | Pressure | Rain* | Wind** | Luminosity | Snow |
|---|---|---|---|---|---|---|---|
| 1777789995 | 10° C | 56% | 1018 hPa | 0 mm | - | - | - |
| 1777789274 | 8.89° C | 59% | 1018 hPa | 0 mm | - | - | - |
| 1777788554 | 7.22° C | 63% | 1018 hPa | 0 mm | - | - | - |
| 1777787835 | 6.67° C | 64% | 1018 hPa | 0 mm | - | - | - |
| 1777787114 | 6.11° C | 66% | 1018 hPa | 0 mm | - | - | - |
| 1777786394 | 5.56° C | 66% | 1018 hPa | 0 mm | - | - | - |
| 1777785675 | 5.56° C | 65% | 1018 hPa | 0 mm | - | - | - |
| 1777784955 | 5.56° C | 64% | 1018 hPa | 0 mm | - | - | - |
| 1777784235 | 5.56° C | 64% | 1018 hPa | 0 mm | - | - | - |
| 1777783516 | 5.56° C | 64% | 1018 hPa | 0 mm | - | - | - |
| 1777782795 | 5° C | 65% | 1017 hPa | 0 mm | - | - | - |
| 1777782075 | 5.56° C | 63% | 1018 hPa | 0 mm | - | - | - |
| 1777781355 | 5.56° C | 62% | 1018 hPa | 0 mm | - | - | - |
| 1777780635 | 5.56° C | 62% | 1017 hPa | 0 mm | - | - | - |
| 1777779915 | 5.56° C | 62% | 1018 hPa | 0 mm | - | - | - |
| 1777779196 | 6.11° C | 60% | 1018 hPa | 0 mm | - | - | - |
| 1777778475 | 6.11° C | 59% | 1017 hPa | 0 mm | - | - | - |
| 1777777755 | 6.67° C | 58% | 1018 hPa | 0 mm | - | - | - |
| 1777777035 | 6.67° C | 58% | 1018 hPa | 0 mm | - | - | - |
| 1777776315 | 6.67° C | 57% | 1018 hPa | 0 mm | - | - | - |
| 1777775595 | 7.22° C | 56% | 1018 hPa | 0 mm | - | - | - |
| 1777774875 | 7.22° C | 56% | 1018 hPa | 0 mm | - | - | - |
| 1777774155 | 7.78° C | 54% | 1018 hPa | 0 mm | - | - | - |
| 1777773435 | 7.78° C | 54% | 1018 hPa | 0 mm | - | - | - |
| 1777772715 | 7.78° C | 54% | 1018 hPa | 0 mm | - | - | - |
* Rain latest hour (hover to see other rain measurements)
** Current wind speed in m/s (hover to see current wind gust speed)